Richard Maersk — OYIZ2 — position and weather

sailwx.info

Track history (hours):
 
Tides and Currents Weather Stations Pressure Air Temp Water Temp Dewpoint Dewpoint Depression Visibility Wind Speed Wind Dir Waves Ship Positions

Richard Maersk

Last reported at 2016-May-15 01:19 UTC. Time now 2016-May-26 06:51 UTC.
Position N 01°56' E 102°18'.
Warning: this ship's position is 11 days out of date.

Length 171 m; draft 9.2 m.

Type: Ship (hazmat cat A). MMSI: 219967000.

Date/timePositionNaut miles runAvg speedWind from/ knotsBaromVisibWave heightAir tempDewpointWater temp
2016-May-15 01:19N 01°56' E 102°18'1012.7
2016-May-15 00:33N 01°52' E 102°27'7312.2
2016-May-14 18:32N 01°13' E 103°29'1111.1
2016-May-14 17:33N 01°12' E 103°40'5 4.8
2016-May-14 16:31N 01°14' E 103°44'0 0.0
2016-May-14 15:19N 01°14' E 103°44'0 0.0
2016-May-14 14:22N 01°14' E 103°44'0 0.0
2016-May-14 13:31N 01°14' E 103°44'0 0.0
2016-May-14 12:28N 01°14' E 103°44'0 0.0
2016-May-14 11:31N 01°14' E 103°44'0 0.0
2016-May-14 10:31N 01°14' E 103°44'0 0.0
2016-May-14 09:28N 01°14' E 103°44'0 0.0
2016-May-14 08:31N 01°14' E 103°44'0 0.0
2016-May-14 07:25N 01°14' E 103°44'0 0.0
2016-May-14 06:31N 01°14' E 103°44'0 0.0
2016-May-14 05:28N 01°14' E 103°44'0 0.0
2016-May-14 04:25N 01°14' E 103°44'0 0.0
2016-May-14 03:31N 01°14' E 103°44'0 0.0
2016-May-14 02:30N 01°14' E 103°44'0 0.0
2016-May-14 01:30N 01°14' E 103°44'0 0.0
2016-May-14 00:33N 01°14' E 103°44'0 0.0
2016-May-13 23:30N 01°14' E 103°44'0 0.0
2016-May-13 22:27N 01°14' E 103°44'0 0.0
2016-May-13 21:33N 01°14' E 103°44'0 0.0
2016-May-13 19:33N 01°14' E 103°44'0 0.0
2016-May-13 18:30N 01°14' E 103°44'0 0.0
2016-May-13 17:30N 01°14' E 103°44'0 0.0
2016-May-13 16:33N 01°14' E 103°44'0 0.0
2016-May-13 15:18N 01°14' E 103°44'0 0.0
2016-May-13 14:30N 01°14' E 103°44'0 0.2
2016-May-13 13:33N 01°14' E 103°44'3 3.1
2016-May-13 12:27N 01°14' E 103°48'0 0.1
2016-May-13 11:33N 01°14' E 103°48'0 0.0
2016-May-13 10:33N 01°14' E 103°48'0 0.1
2016-May-13 09:30N 01°14' E 103°48'0 0.0
2016-May-13 08:30N 01°14' E 103°48'0 0.1
2016-May-13 07:33N 01°14' E 103°48'4 4.5
2016-May-13 06:33N 01°14' E 103°43'1010.2
2016-May-13 05:33N 01°11' E 103°33'8110.1
2016-May-12 21:33N 01°50' E 102°23'  
Track history (hours):
 
Tides and Currents Weather Stations Pressure Air Temp Water Temp Dewpoint Dewpoint Depression Visibility Wind Speed Wind Dir Waves Ship Positions

Richard Maersk

Last reported at 2016-May-15 01:19 UTC. Time now 2016-May-26 06:51 UTC.
Position N 01°56' E 102°18'.
Warning: this ship's position is 11 days out of date.

Length 171 m; draft 9.2 m.

Type: Ship (hazmat cat A). MMSI: 219967000.

Date/timePositionNaut miles runAvg speedWind from/ knotsBaromVisibWave heightAir tempDewpointWater temp
2016-May-15 01:19N 01°56' E 102°18'1012.7
2016-May-15 00:33N 01°52' E 102°27'7312.2
2016-May-14 18:32N 01°13' E 103°29'1111.1
2016-May-14 17:33N 01°12' E 103°40'5 4.8
2016-May-14 16:31N 01°14' E 103°44'0 0.0
2016-May-14 15:19N 01°14' E 103°44'0 0.0
2016-May-14 14:22N 01°14' E 103°44'0 0.0
2016-May-14 13:31N 01°14' E 103°44'0 0.0
2016-May-14 12:28N 01°14' E 103°44'0 0.0
2016-May-14 11:31N 01°14' E 103°44'0 0.0
2016-May-14 10:31N 01°14' E 103°44'0 0.0
2016-May-14 09:28N 01°14' E 103°44'0 0.0
2016-May-14 08:31N 01°14' E 103°44'0 0.0
2016-May-14 07:25N 01°14' E 103°44'0 0.0
2016-May-14 06:31N 01°14' E 103°44'0 0.0
2016-May-14 05:28N 01°14' E 103°44'0 0.0
2016-May-14 04:25N 01°14' E 103°44'0 0.0
2016-May-14 03:31N 01°14' E 103°44'0 0.0
2016-May-14 02:30N 01°14' E 103°44'0 0.0
2016-May-14 01:30N 01°14' E 103°44'0 0.0
2016-May-14 00:33N 01°14' E 103°44'0 0.0
2016-May-13 23:30N 01°14' E 103°44'0 0.0
2016-May-13 22:27N 01°14' E 103°44'0 0.0
2016-May-13 21:33N 01°14' E 103°44'0 0.0
2016-May-13 19:33N 01°14' E 103°44'0 0.0
2016-May-13 18:30N 01°14' E 103°44'0 0.0
2016-May-13 17:30N 01°14' E 103°44'0 0.0
2016-May-13 16:33N 01°14' E 103°44'0 0.0
2016-May-13 15:18N 01°14' E 103°44'0 0.0
2016-May-13 14:30N 01°14' E 103°44'0 0.2
2016-May-13 13:33N 01°14' E 103°44'3 3.1
2016-May-13 12:27N 01°14' E 103°48'0 0.1
2016-May-13 11:33N 01°14' E 103°48'0 0.0
2016-May-13 10:33N 01°14' E 103°48'0 0.1
2016-May-13 09:30N 01°14' E 103°48'0 0.0
2016-May-13 08:30N 01°14' E 103°48'0 0.1
2016-May-13 07:33N 01°14' E 103°48'4 4.5
2016-May-13 06:33N 01°14' E 103°43'1010.2
2016-May-13 05:33N 01°11' E 103°33'8110.1
2016-May-12 21:33N 01°50' E 102°23'  

Dump ship's entire track history